This is the latest recevied weather packets stored in our database for station/object YD2APR-13. If no packets are shown the sender has not sent any weather packets the latest 10 day(s).
| Time | Temp. | Humidity | Pressure | Rain* | Wind** | Luminosity | Snow |
|---|---|---|---|---|---|---|---|
| 1778060739 | 30.56° C | 60% | 1012.8 hPa | - | - | - | - |
| 1778060139 | 30.56° C | 60% | 1012.8 hPa | - | - | - | - |
| 1778059539 | 30.56° C | 59% | 1012.7 hPa | - | - | - | - |
| 1778058939 | 31.11° C | 59% | 1012.5 hPa | - | - | - | - |
| 1778058339 | 31.11° C | 59% | 1012.5 hPa | - | - | - | - |
| 1778057739 | 30.56° C | 61% | 1012.6 hPa | - | - | - | - |
| 1778057138 | 31.11° C | 60% | 1012.6 hPa | - | - | - | - |
| 1778056539 | 31.67° C | 59% | 1012.6 hPa | - | - | - | - |
| 1778055938 | 32.78° C | 55% | 1012.6 hPa | - | - | - | - |
| 1778055338 | 32.78° C | 55% | 1012.6 hPa | - | - | - | - |
| 1778054738 | 33.33° C | 52% | 1012.6 hPa | - | - | - | - |
| 1778054138 | 33.89° C | 51% | 1012.6 hPa | - | - | - | - |
| 1778053538 | 33.89° C | 51% | 1012.7 hPa | - | - | - | - |
| 1778052938 | 33.33° C | 53% | 1012.7 hPa | - | - | - | - |
| 1778052338 | 32.78° C | 54% | 1012.9 hPa | - | - | - | - |
| 1778051738 | 33.33° C | 52% | 1013 hPa | - | - | - | - |
| 1778051138 | 33.89° C | 51% | 1013.1 hPa | - | - | - | - |
| 1778050538 | 33.89° C | 49% | 1013.2 hPa | - | - | - | - |
| 1778049938 | 34.44° C | 50% | 1013.2 hPa | - | - | - | - |
| 1778049338 | 33.89° C | 51% | 1013.4 hPa | - | - | - | - |
| 1778048738 | 34.44° C | 50% | 1013.5 hPa | - | - | - | - |
| 1778048138 | 34.44° C | 50% | 1013.6 hPa | - | - | - | - |
| 1778047538 | 34.44° C | 50% | 1013.6 hPa | - | - | - | - |
| 1778046938 | 33.33° C | 52% | 1013.6 hPa | - | - | - | - |
| 1778046338 | 33.89° C | 52% | 1013.8 hPa | - | - | - | - |
* Rain since midnight (hover to see other rain measurements)
** Current wind speed in m/s (hover to see current wind gust speed)